Time;durP1;ratioP1;P1;durP2;ratioP2;P2;SDS_P1;SDS_P2;PMS_P1;PMS_P2;Temp;Humidity;BMP_temperature;BMP_pressure;BME280_temperature;BME280_humidity;BME280_pressure;Samples;Min_cycle;Max_cycle;Signal;HPM_P1;HPM_P2
2023/03/31 00:09:20;;;;;;;1999.90;999.90;;;11.60;99.90;;;;;;6716713;88;20259;-76
2023/03/31 00:19:21;;;;;;;1999.90;999.90;;;11.50;99.90;;;;;;6722515;88;20194;-76
2023/03/31 00:29:21;;;;;;;1999.90;999.90;;;11.60;99.90;;;;;;6720715;88;20226;-76
2023/03/31 00:39:28;;;;;;;1999.90;999.90;;;11.50;99.90;;;;;;6716635;88;20201;-76
2023/03/31 00:49:50;;;;;;;1999.90;999.90;;;11.50;99.90;;;;;;6715619;88;20681;-76
2023/03/31 01:00:13;;;;;;;1999.90;999.90;;;11.50;99.90;;;;;;6725369;88;20258;-76
2023/03/31 01:10:14;;;;;;;1999.90;999.90;;;11.60;99.90;;;;;;6712730;88;20362;-75
2023/03/31 01:20:29;;;;;;;1999.90;999.90;;;11.60;99.90;;;;;;6712393;88;20268;-76
2023/03/31 01:30:33;;;;;;;1999.90;999.90;;;11.60;99.90;;;;;;6714654;88;20204;-75
2023/03/31 01:41:15;;;;;;;1999.90;999.90;;;11.60;99.90;;;;;;6713864;88;20849;-75
2023/03/31 01:51:21;;;;;;;1999.90;999.90;;;11.70;99.90;;;;;;6713710;88;20351;-75
2023/03/31 02:01:29;;;;;;;;;;;11.80;99.90;;;;;;6715902;88;20214;-76
2023/03/31 02:11:32;;;;;;;1999.90;999.90;;;12.00;99.90;;;;;;6712911;88;20102;-76
2023/03/31 02:21:37;;;;;;;1999.90;999.90;;;11.70;99.90;;;;;;6715270;88;20215;-76
2023/03/31 02:31:54;;;;;;;1999.90;999.90;;;11.60;99.90;;;;;;6714661;88;20634;-76
2023/03/31 02:41:55;;;;;;;1999.90;999.90;;;11.50;99.90;;;;;;6714478;88;20374;-76
2023/03/31 02:52:37;;;;;;;1999.90;999.90;;;11.50;99.90;;;;;;6712920;88;20291;-76
2023/03/31 03:02:59;;;;;;;1999.90;999.90;;;11.40;99.90;;;;;;6712577;88;20315;-76
2023/03/31 03:13:25;;;;;;;1999.90;999.90;;;11.40;99.90;;;;;;6712456;88;20177;-76
2023/03/31 03:23:26;;;;;;;1999.90;999.90;;;11.40;99.90;;;;;;6714271;88;20256;-76
2023/03/31 03:33:26;;;;;;;1999.90;999.90;;;11.40;99.90;;;;;;6720476;88;20343;-75
2023/03/31 03:43:27;;;;;;;1999.90;999.90;;;11.40;99.90;;;;;;6716857;88;20280;-76
2023/03/31 03:53:27;;;;;;;1999.90;999.90;;;11.40;99.90;;;;;;6716383;88;20657;-76
2023/03/31 04:03:28;;;;;;;1999.90;999.90;;;11.40;99.90;;;;;;6713899;88;20628;-75
2023/03/31 04:13:28;;;;;;;1999.90;999.90;;;11.50;99.90;;;;;;6711371;88;20778;-76
2023/03/31 04:23:37;;;;;;;1999.90;999.90;;;11.40;99.90;;;;;;6714053;88;20214;-76
2023/03/31 04:33:37;;;;;;;1999.90;999.90;;;11.30;99.90;;;;;;6712830;88;20598;-77
2023/03/31 04:43:38;;;;;;;1999.90;999.90;;;10.90;99.90;;;;;;6720826;87;20293;-76
2023/03/31 04:53:38;;;;;;;1999.90;999.90;;;10.90;99.90;;;;;;6716174;88;20236;-76
2023/03/31 05:03:39;;;;;;;1999.90;999.90;;;10.90;99.90;;;;;;6716171;88;20264;-76
2023/03/31 05:13:39;;;;;;;1999.90;999.90;;;11.00;99.90;;;;;;6714939;88;20214;-76
2023/03/31 05:23:40;;;;;;;1999.90;999.90;;;11.10;99.90;;;;;;6717797;88;20217;-76
2023/03/31 05:33:41;;;;;;;1999.90;999.90;;;11.20;99.90;;;;;;6722117;88;20201;-76
2023/03/31 05:43:42;;;;;;;1999.90;999.90;;;11.20;99.90;;;;;;6717093;88;20368;-76
2023/03/31 05:53:43;;;;;;;1999.90;999.90;;;11.30;99.90;;;;;;6718428;88;20660;-76
2023/03/31 06:03:43;;;;;;;1999.90;999.90;;;11.00;99.90;;;;;;6717596;88;20185;-76
2023/03/31 06:13:44;;;;;;;1999.90;999.90;;;10.90;99.90;;;;;;6733755;88;20261;-77
2023/03/31 06:23:45;;;;;;;1999.90;999.90;;;10.80;99.90;;;;;;6725360;88;20212;-76
2023/03/31 06:33:46;;;;;;;1999.90;999.90;;;10.90;99.90;;;;;;6719145;88;20442;-77
2023/03/31 06:43:47;;;;;;;1999.90;999.90;;;10.90;99.90;;;;;;6718375;88;20248;-77
2023/03/31 06:53:48;;;;;;;1999.90;999.90;;;11.00;99.90;;;;;;6718093;88;20262;-76
2023/03/31 07:03:48;;;;;;;1999.90;999.90;;;11.00;99.90;;;;;;6718521;88;20372;-76
2023/03/31 07:13:49;;;;;;;1999.90;999.90;;;11.10;99.90;;;;;;6718202;88;20363;-77
2023/03/31 07:23:49;;;;;;;1999.90;999.90;;;11.50;99.90;;;;;;6718229;88;20190;-76
2023/03/31 07:33:50;;;;;;;1999.90;999.90;;;11.90;99.90;;;;;;6718866;88;20227;-76
2023/03/31 07:43:50;;;;;;;1999.90;999.90;;;12.20;99.90;;;;;;6718622;88;20335;-76
2023/03/31 07:53:51;;;;;;;1999.90;999.90;;;12.60;99.90;;;;;;6718811;88;20567;-76
2023/03/31 08:03:54;;;;;;;1999.90;999.90;;;12.70;99.90;;;;;;6718179;88;20696;-76
2023/03/31 08:13:54;;;;;;;1999.90;999.90;;;12.90;99.90;;;;;;6720201;88;20284;-76
2023/03/31 08:23:55;;;;;;;1999.90;999.90;;;13.20;99.90;;;;;;6715296;88;20215;-76
2023/03/31 08:33:56;;;;;;;1999.90;999.90;;;13.50;99.90;;;;;;6718821;88;20189;-76
2023/03/31 08:43:59;;;;;;;1999.90;999.90;;;13.60;99.90;;;;;;6718219;88;20221;-75
2023/03/31 08:54:09;;;;;;;1999.90;999.90;;;13.60;99.90;;;;;;6719835;88;20182;-78
2023/03/31 09:04:42;;;;;;;1999.90;999.90;;;13.80;99.90;;;;;;6718608;88;20190;-77
2023/03/31 09:15:22;;;;;;;1999.90;999.90;;;14.70;99.90;;;;;;6712017;88;20346;-76
2023/03/31 09:25:30;;;;;;;1999.90;999.90;;;15.50;99.90;;;;;;6699762;88;20296;-75
2023/03/31 09:35:32;;;;;;;1999.90;999.90;;;15.60;99.90;;;;;;6717854;88;20689;-76
2023/03/31 09:45:34;;;;;;;1999.90;999.90;;;14.90;99.90;;;;;;6719288;88;20278;-77
2023/03/31 09:55:48;;;;;;;1999.90;999.90;;;15.00;99.90;;;;;;6723466;88;20336;-76
2023/03/31 10:05:53;;;;;;;1999.90;999.90;;;14.90;99.90;;;;;;6715863;88;20330;-76
2023/03/31 10:16:01;;;;;;;1999.90;999.90;;;15.00;99.90;;;;;;6711012;88;20349;-77
2023/03/31 10:26:03;;;;;;;1999.90;999.90;;;14.90;99.90;;;;;;6708129;88;20283;-76
2023/03/31 10:36:21;;;;;;;1999.90;999.90;;;14.60;99.90;;;;;;6711464;88;20193;-77
2023/03/31 10:46:45;;;;;;;1999.90;999.90;;;14.40;99.90;;;;;;6714918;88;20198;-75
2023/03/31 10:56:50;;;;;;;1999.90;999.90;;;14.70;99.90;;;;;;6713636;88;20227;-76
2023/03/31 11:07:02;;;;;;;1999.90;999.90;;;15.30;99.90;;;;;;6719424;88;20230;-76
2023/03/31 11:17:33;;;;;;;1999.90;999.90;;;16.20;99.90;;;;;;6717639;88;20226;-76
2023/03/31 11:28:11;;;;;;;1999.90;999.90;;;15.70;99.90;;;;;;6716264;88;20244;-76
2023/03/31 11:38:12;;;;;;;1999.90;999.90;;;14.90;99.90;;;;;;6725677;88;20217;-77
2023/03/31 11:48:21;;;;;;;1999.90;999.90;;;15.10;99.90;;;;;;6718512;88;20219;-76
2023/03/31 11:58:46;;;;;;;1999.90;999.90;;;15.20;99.90;;;;;;6717863;88;20609;-76
2023/03/31 12:09:03;;;;;;;1999.90;999.90;;;15.00;99.90;;;;;;6716739;88;20610;-76
2023/03/31 12:19:33;;;;;;;1999.90;999.90;;;13.50;99.90;;;;;;6717367;88;20211;-76
2023/03/31 12:29:36;;;;;;;1999.90;999.90;;;13.10;99.90;;;;;;6711793;88;21145;-76
2023/03/31 12:39:55;;;;;;;1999.90;999.90;;;13.40;99.90;;;;;;6712681;88;20361;-76
2023/03/31 12:50:37;;;;;;;1999.90;999.90;;;13.60;99.90;;;;;;6717498;88;20240;-77
2023/03/31 13:01:05;;;;;;;1999.90;999.90;;;14.40;99.90;;;;;;6729530;88;20226;-76
2023/03/31 13:11:05;;;;;;;1999.90;999.90;;;14.80;99.90;;;;;;6731300;88;20214;-76
2023/03/31 13:21:07;;;;;;;1999.90;999.90;;;15.40;99.90;;;;;;6723317;88;20317;-76
2023/03/31 13:31:10;;;;;;;1999.90;999.90;;;14.40;99.90;;;;;;6720102;88;20649;-76
2023/03/31 13:41:28;;;;;;;1999.90;999.90;;;14.10;99.90;;;;;;6720916;88;20177;-77
2023/03/31 13:51:53;;;;;;;1999.90;999.90;;;14.30;99.90;;;;;;6720771;88;20203;-78
2023/03/31 14:02:11;;;;;;;1999.90;999.90;;;14.60;99.90;;;;;;6713441;88;20214;-77
2023/03/31 14:12:30;;;;;;;1999.90;999.90;;;14.80;99.90;;;;;;6714785;88;20217;-78
2023/03/31 14:22:46;;;;;;;1999.90;999.90;;;15.00;99.90;;;;;;6715629;88;20535;-78
2023/03/31 14:33:21;;;;;;;1999.90;999.90;;;14.90;99.90;;;;;;6710090;88;20241;-79
2023/03/31 14:43:26;;;;;;;1999.90;999.90;;;14.30;99.90;;;;;;6718226;88;20201;-77
2023/03/31 14:53:27;;;;;;;1999.90;999.90;;;14.20;99.90;;;;;;6707688;88;20243;-77
2023/03/31 15:03:29;;;;;;;1999.90;999.90;;;14.20;99.90;;;;;;6718880;88;20755;-77
2023/03/31 15:13:34;;;;;;;1999.90;999.90;;;14.50;99.90;;;;;;6720239;88;20610;-77
2023/03/31 15:23:39;;;;;;;1999.90;999.90;;;14.70;99.90;;;;;;6721256;88;20226;-77
2023/03/31 15:33:42;;;;;;;1999.90;999.90;;;14.80;99.90;;;;;;6716022;88;20600;-76
2023/03/31 15:44:03;;;;;;;1999.90;999.90;;;14.80;99.90;;;;;;6721186;88;20235;-77
2023/03/31 15:54:28;;;;;;;1999.90;999.90;;;14.70;99.90;;;;;;6721042;88;20690;-76
2023/03/31 16:04:31;;;;;;;1999.90;999.90;;;14.50;99.90;;;;;;6697393;85;23872;-78
2023/03/31 16:14:36;;;;;;;1999.90;999.90;;;14.40;99.90;;;;;;6670607;88;20489;-78
2023/03/31 16:24:37;;;;;;;1999.90;999.90;;;14.40;99.90;;;;;;6671824;89;20176;-78
2023/03/31 16:34:57;;;;;;;1999.90;999.90;;;14.30;99.90;;;;;;6669148;89;20211;-76
2023/03/31 16:44:57;;;;;;;1999.90;999.90;;;14.30;99.90;;;;;;6678495;88;20238;-79
2023/03/31 16:54:58;;;;;;;1999.90;999.90;;;14.20;99.90;;;;;;6688219;88;20249;-79
2023/03/31 17:04:58;;;;;;;1999.90;999.90;;;14.00;99.90;;;;;;6692087;89;20179;-78
2023/03/31 17:14:59;;;;;;;1999.90;999.90;;;13.90;99.90;;;;;;6691403;88;20517;-82
2023/03/31 17:24:59;;;;;;;1999.90;999.90;;;13.70;99.90;;;;;;6711326;88;20269;-82
2023/03/31 17:35:01;;;;;;;1999.90;999.90;;;13.60;99.90;;;;;;6698004;88;20292;-80
2023/03/31 17:45:01;;;;;;;1999.90;999.90;;;13.60;99.90;;;;;;6663083;89;20571;-78
2023/03/31 17:55:08;;;;;;;1999.90;999.90;;;13.50;99.90;;;;;;6651843;89;21082;-78
2023/03/31 18:05:10;;;;;;;1999.90;999.90;;;13.40;99.90;;;;;;6659056;89;20201;-77
2023/03/31 18:15:10;;;;;;;1999.90;999.90;;;13.20;99.90;;;;;;6683314;89;20221;-81
2023/03/31 18:25:11;;;;;;;1999.90;999.90;;;13.20;99.90;;;;;;6696333;88;20187;-80
2023/03/31 18:35:12;;;;;;;1999.90;999.90;;;13.10;99.90;;;;;;6668910;89;20313;-79
2023/03/31 18:45:13;;;;;;;1999.90;999.90;;;13.00;99.90;;;;;;6660163;89;20192;-79
2023/03/31 18:55:13;;;;;;;1999.90;999.90;;;12.90;99.90;;;;;;6680678;88;20180;-78
2023/03/31 19:05:14;;;;;;;1999.90;999.90;;;12.80;99.90;;;;;;6689233;88;20342;-78
2023/03/31 19:15:15;;;;;;;1999.90;999.90;;;12.80;99.90;;;;;;6683372;88;20261;-78
2023/03/31 19:25:18;;;;;;;1999.90;999.90;;;12.60;99.90;;;;;;6680338;89;20226;-78
2023/03/31 19:35:19;;;;;;;1999.90;999.90;;;12.50;99.90;;;;;;6675694;89;20216;-78
2023/03/31 19:45:20;;;;;;;1999.90;999.90;;;12.40;99.90;;;;;;6678083;89;20649;-78
2023/03/31 19:55:20;;;;;;;1999.90;999.90;;;12.40;99.90;;;;;;6677112;89;20200;-80
2023/03/31 20:05:21;;;;;;;1999.90;999.90;;;12.30;99.90;;;;;;6680372;88;21127;-78
2023/03/31 20:15:21;;;;;;;1999.90;999.90;;;12.30;99.90;;;;;;6680034;88;20217;-78
2023/03/31 20:25:22;;;;;;;1999.90;999.90;;;12.30;99.90;;;;;;6674641;89;20199;-79
2023/03/31 20:35:23;;;;;;;1999.90;999.90;;;12.20;99.90;;;;;;6675896;89;20274;-79
2023/03/31 20:45:23;;;;;;;1999.90;999.90;;;11.90;99.90;;;;;;6676768;89;20183;-78
2023/03/31 20:55:24;;;;;;;1999.90;999.90;;;11.90;99.90;;;;;;6672628;89;20213;-78
2023/03/31 21:05:24;;;;;;;1999.90;999.90;;;12.00;99.90;;;;;;6673814;89;20259;-77
2023/03/31 21:15:25;;;;;;;1999.90;999.90;;;11.90;99.90;;;;;;6677985;88;20196;-79
2023/03/31 21:25:26;;;;;;;1999.90;999.90;;;12.00;99.90;;;;;;6676751;89;20684;-78
2023/03/31 21:35:27;;;;;;;1999.90;999.90;;;12.00;99.90;;;;;;6673437;89;20252;-78
2023/03/31 21:45:28;;;;;;;1999.90;999.90;;;12.00;99.90;;;;;;6675394;89;20183;-77
2023/03/31 21:55:28;;;;;;;1999.90;999.90;;;11.90;99.90;;;;;;6678748;89;20244;-78
2023/03/31 22:05:32;;;;;;;1999.90;999.90;;;11.90;99.90;;;;;;6679753;89;20235;-78
2023/03/31 22:15:32;;;;;;;1999.90;999.90;;;11.80;99.90;;;;;;6682507;89;20277;-79
2023/03/31 22:25:33;;;;;;;1999.90;999.90;;;11.70;99.90;;;;;;6676051;89;20558;-77
2023/03/31 22:35:34;;;;;;;1999.90;999.90;;;11.70;99.90;;;;;;6668482;89;21422;-77
2023/03/31 22:45:36;;;;;;;1999.90;999.90;;;11.70;99.90;;;;;;6681646;89;20272;-77
2023/03/31 22:55:41;;;;;;;1999.90;999.90;;;11.60;99.90;;;;;;6683465;89;20325;-76
2023/03/31 23:05:42;;;;;;;1999.90;999.90;;;11.60;99.90;;;;;;6683504;89;22569;-77
2023/03/31 23:15:42;;;;;;;1999.90;999.90;;;11.70;99.90;;;;;;6678934;89;20281;-78
2023/03/31 23:25:43;;;;;;;1999.90;999.90;;;11.70;99.90;;;;;;6675616;89;20300;-77
2023/03/31 23:35:57;;;;;;;1999.90;999.90;;;11.60;99.90;;;;;;6685860;78;20626;-76
2023/03/31 23:45:58;;;;;;;1999.90;999.90;;;11.60;99.90;;;;;;6695494;88;20192;-76
2023/03/31 23:56:02;;;;;;;1999.90;999.90;;;11.60;99.90;;;;;;6691563;88;20213;-78
